Terminal Aerodrome Forecast
Issued by NWS

Current Version | Previous Version | Graphics & Text | Print | Product List | Glossary On
Versions: 1 2 3 4 5 6 7 8 9 10 11 12 13 14 15 16 17 18 19 20 21 22 23 24 25 26
000
FTUS41 KILN 201800 AAA
TAFLUK
TAF AMD
KLUK 201845Z 2019/2118 25009KT P6SM SCT045 OVC250
      TEMPO 2020/2022 5SM -TSRA BKN045CB
     FM210000 27003KT P6SM SCT100 BKN250
     FM210700 VRB02KT P6SM VCTS BKN045CB
     FM211200 23005KT P6SM SCT045 BKN150=

USA.gov is the U.S. government's official web portal to all federal, state and local government web resources and services.